Time;durP1;ratioP1;P1;durP2;ratioP2;P2;SDS_P1;SDS_P2;PMS_P1;PMS_P2;Temp;Humidity;BMP_temperature;BMP_pressure;BME280_temperature;BME280_humidity;BME280_pressure;Samples;Min_cycle;Max_cycle;Signal;HPM_P1;HPM_P2
2024/04/03 04:01:50;;;;;;;12.38;6.18;;;8.50;99.90;;;;;;5382295;22;20268;-74
2024/04/03 04:04:17;;;;;;;13.50;6.63;;;8.50;99.90;;;;;;5031752;28;20313;-75
2024/04/03 04:06:43;;;;;;;11.20;4.63;;;8.50;99.90;;;;;;5030945;28;20607;-74
2024/04/03 04:09:10;;;;;;;13.33;7.20;;;8.50;99.90;;;;;;5028664;28;20223;-75
2024/04/03 04:11:35;;;;;;;17.60;5.75;;;8.40;99.90;;;;;;5027178;28;20246;-74
2024/04/03 04:14:02;;;;;;;11.40;6.80;;;8.40;99.90;;;;;;5020377;28;20661;-74
2024/04/03 04:16:28;;;;;;;11.27;5.65;;;8.40;99.90;;;;;;5016955;28;20215;-75
2024/04/03 04:18:56;;;;;;;8.80;6.80;;;8.40;99.90;;;;;;5022294;28;20203;-74
2024/04/03 04:21:22;;;;;;;10.75;5.80;;;8.30;99.90;;;;;;5012804;28;20489;-75
2024/04/03 04:23:49;;;;;;;9.77;6.55;;;8.30;99.90;;;;;;5012655;28;20204;-74
2024/04/03 04:26:15;;;;;;;12.50;6.75;;;8.30;99.90;;;;;;5017762;28;20218;-74
2024/04/03 04:28:42;;;;;;;8.77;5.57;;;8.30;99.90;;;;;;5019775;28;20563;-74
2024/04/03 04:31:07;;;;;;;10.13;5.80;;;8.30;99.90;;;;;;5012898;28;20238;-74
2024/04/03 04:33:38;;;;;;;16.47;7.43;;;8.30;99.90;;;;;;5012793;28;20218;-75
2024/04/03 04:36:06;;;;;;;11.00;4.93;;;8.20;99.90;;;;;;5015793;28;20215;-73
2024/04/03 04:38:33;;;;;;;7.05;5.28;;;8.30;99.90;;;;;;5011448;28;20217;-72
2024/04/03 04:41:00;;;;;;;9.20;6.68;;;8.30;99.90;;;;;;5014401;28;20251;-73
2024/04/03 04:43:28;;;;;;;11.48;4.43;;;8.30;99.90;;;;;;5026020;28;20209;-73
2024/04/03 04:45:59;;;;;;;14.25;5.22;;;8.20;99.90;;;;;;5023455;28;20704;-74
2024/04/03 04:48:26;;;;;;;16.27;9.18;;;8.20;99.90;;;;;;5025332;28;20231;-74
2024/04/03 04:50:53;;;;;;;8.23;5.68;;;8.10;99.90;;;;;;5011271;28;20230;-74
2024/04/03 04:53:21;;;;;;;12.32;6.57;;;8.10;99.90;;;;;;5028240;28;20198;-74
2024/04/03 04:55:54;;;;;;;10.35;5.80;;;8.00;99.90;;;;;;5018006;28;20214;-75
2024/04/03 04:58:21;;;;;;;9.57;6.30;;;8.00;99.90;;;;;;5031603;28;20213;-74
2024/04/03 05:00:48;;;;;;;17.75;7.65;;;8.00;99.90;;;;;;5024676;28;20732;-75
2024/04/03 05:03:14;;;;;;;14.75;7.30;;;8.00;99.90;;;;;;5025721;28;20278;-74
2024/04/03 05:05:40;;;;;;;17.85;7.90;;;8.00;99.90;;;;;;5013694;28;20209;-73
2024/04/03 05:08:07;;;;;;;10.03;7.33;;;8.00;99.90;;;;;;5009296;28;20231;-74
2024/04/03 05:10:35;;;;;;;11.38;7.13;;;7.90;99.90;;;;;;5010865;28;20315;-74
2024/04/03 05:13:01;;;;;;;21.70;8.30;;;8.00;99.90;;;;;;5011046;28;20207;-73
2024/04/03 05:15:30;;;;;;;14.48;6.38;;;8.00;99.90;;;;;;5011328;28;20204;-74
2024/04/03 05:17:59;;;;;;;12.23;7.53;;;7.90;99.90;;;;;;5010253;28;20195;-75
2024/04/03 05:20:25;;;;;;;13.55;6.60;;;8.00;99.90;;;;;;5011548;28;20596;-74
2024/04/03 05:22:51;;;;;;;16.50;7.60;;;8.00;99.90;;;;;;5010973;28;20200;-74
2024/04/03 05:25:18;;;;;;;19.52;9.95;;;8.00;99.90;;;;;;5010395;28;20472;-75
2024/04/03 05:27:47;;;;;;;17.85;7.18;;;8.00;99.90;;;;;;5011309;28;20230;-74
2024/04/03 05:30:12;;;;;;;12.70;7.10;;;8.00;99.90;;;;;;5012499;28;20408;-73
2024/04/03 05:32:39;;;;;;;15.10;7.10;;;8.00;99.90;;;;;;5010930;28;20243;-75
2024/04/03 05:35:05;;;;;;;9.85;5.65;;;7.90;99.90;;;;;;5008917;28;20203;-72
2024/04/03 05:37:32;;;;;;;7.10;5.72;;;7.90;99.90;;;;;;5009419;28;20572;-73
2024/04/03 05:39:58;;;;;;;15.15;5.85;;;7.90;99.90;;;;;;5011772;28;20265;-75
2024/04/03 05:42:24;;;;;;;12.57;6.70;;;7.80;99.90;;;;;;5008934;28;20231;-75
2024/04/03 05:44:52;;;;;;;7.30;5.30;;;7.80;99.90;;;;;;5009572;28;20685;-74
2024/04/03 05:47:18;;;;;;;8.60;5.38;;;7.80;99.90;;;;;;5011889;28;20278;-75
2024/04/03 05:49:44;;;;;;;11.80;7.18;;;7.90;99.90;;;;;;5010380;28;20701;-75
2024/04/03 05:52:11;;;;;;;8.30;7.17;;;7.90;99.90;;;;;;5008456;28;20230;-75
2024/04/03 05:54:36;;;;;;;9.23;5.50;;;7.90;99.90;;;;;;5006253;28;20219;-74
2024/04/03 05:57:03;;;;;;;7.37;4.17;;;7.90;99.90;;;;;;5008930;28;20662;-74
2024/04/03 05:59:29;;;;;;;7.30;5.00;;;7.90;99.90;;;;;;5009246;28;20207;-74
2024/04/03 06:01:57;;;;;;;12.60;5.67;;;7.90;99.90;;;;;;5008332;28;20234;-73
2024/04/03 06:04:23;;;;;;;8.23;5.13;;;7.90;99.90;;;;;;5009452;28;20207;-74
2024/04/03 06:06:51;;;;;;;8.20;4.80;;;7.80;99.90;;;;;;5011095;28;20212;-75
2024/04/03 06:09:16;;;;;;;8.77;5.45;;;7.80;99.90;;;;;;5009444;28;20581;-74
2024/04/03 06:11:43;;;;;;;6.00;4.80;;;7.80;99.90;;;;;;5010829;28;20309;-75
2024/04/03 06:14:09;;;;;;;5.65;4.03;;;7.80;99.90;;;;;;5010256;28;20673;-74
2024/04/03 06:16:36;;;;;;;4.07;3.70;;;7.80;99.90;;;;;;5009312;28;20203;-75
2024/04/03 06:19:05;;;;;;;6.57;4.82;;;7.70;99.90;;;;;;5008690;28;20203;-74
2024/04/03 06:21:32;;;;;;;7.38;4.13;;;7.70;99.90;;;;;;5011607;28;20315;-77
2024/04/03 06:23:58;;;;;;;5.38;3.88;;;7.70;99.90;;;;;;5012356;28;20211;-75
2024/04/03 06:26:25;;;;;;;4.68;4.20;;;7.70;99.90;;;;;;5009026;28;20253;-74
2024/04/03 06:28:51;;;;;;;6.90;2.85;;;7.60;99.90;;;;;;5010710;28;20219;-75
2024/04/03 06:31:17;;;;;;;5.32;3.25;;;7.60;99.90;;;;;;5015282;28;20230;-78
2024/04/03 06:33:44;;;;;;;3.33;3.03;;;7.60;99.90;;;;;;5012793;28;20203;-77
2024/04/03 06:36:11;;;;;;;5.10;3.88;;;7.60;99.90;;;;;;5008606;28;20226;-75
2024/04/03 06:38:38;;;;;;;4.50;4.20;;;7.60;99.90;;;;;;5011172;28;20298;-77
2024/04/03 06:41:04;;;;;;;4.20;3.63;;;7.60;99.90;;;;;;5011753;28;20537;-77
2024/04/03 06:43:30;;;;;;;5.57;4.10;;;7.60;99.90;;;;;;5014305;28;20322;-77
2024/04/03 06:45:56;;;;;;;6.65;4.05;;;7.60;99.90;;;;;;5014183;28;20466;-76
2024/04/03 06:48:23;;;;;;;7.35;4.47;;;7.70;99.90;;;;;;5011499;28;20310;-76
2024/04/03 06:50:51;;;;;;;5.93;4.95;;;7.60;99.90;;;;;;5015428;28;20223;-77
2024/04/03 06:53:19;;;;;;;5.35;3.35;;;7.60;99.90;;;;;;5015465;28;20203;-77
2024/04/03 06:55:54;;;;;;;5.82;4.07;;;7.60;99.90;;;;;;5014576;28;20223;-76
2024/04/03 06:58:21;;;;;;;3.85;3.42;;;7.60;99.90;;;;;;5013605;28;20222;-74
2024/04/03 07:00:47;;;;;;;12.30;4.60;;;7.70;99.90;;;;;;5012283;28;20235;-77
2024/04/03 07:03:13;;;;;;;5.90;3.63;;;7.80;99.90;;;;;;5012690;28;20399;-76
2024/04/03 07:05:39;;;;;;;5.55;4.03;;;7.80;99.90;;;;;;5011774;28;20553;-77
2024/04/03 07:08:06;;;;;;;5.23;4.60;;;7.80;99.90;;;;;;5012581;28;20226;-75
2024/04/03 07:10:33;;;;;;;4.72;3.97;;;7.80;99.90;;;;;;5015049;28;20231;-75
2024/04/03 07:13:02;;;;;;;3.50;3.20;;;7.80;99.90;;;;;;5014673;28;20261;-76
2024/04/03 07:15:29;;;;;;;4.43;4.03;;;7.80;99.90;;;;;;5008666;28;20303;-76
2024/04/03 07:17:56;;;;;;;5.82;3.95;;;7.80;99.90;;;;;;5013616;28;20680;-77
2024/04/03 07:20:24;;;;;;;7.55;5.25;;;7.80;99.90;;;;;;5006195;28;20293;-76
2024/04/03 07:22:52;;;;;;;4.45;3.40;;;7.90;99.90;;;;;;5009951;28;20218;-74
2024/04/03 07:25:18;;;;;;;5.43;4.57;;;7.90;99.90;;;;;;5006370;28;20222;-77
2024/04/03 07:27:47;;;;;;;5.82;4.00;;;8.00;99.90;;;;;;5010228;28;20246;-76
2024/04/03 07:30:13;;;;;;;4.70;4.28;;;8.10;99.90;;;;;;5008033;28;20235;-76
2024/04/03 07:32:41;;;;;;;8.50;5.07;;;8.10;99.90;;;;;;5007971;28;20214;-76
2024/04/03 07:35:07;;;;;;;5.97;4.68;;;8.20;99.90;;;;;;5013668;28;20494;-77
2024/04/03 07:37:38;;;;;;;6.65;4.35;;;8.20;99.90;;;;;;5011691;28;20779;-76
2024/04/03 07:40:05;;;;;;;5.30;4.78;;;8.20;99.90;;;;;;5005114;28;20215;-77
2024/04/03 07:42:32;;;;;;;5.97;3.92;;;8.20;99.90;;;;;;5010708;28;20223;-74
2024/04/03 07:44:59;;;;;;;7.93;4.47;;;8.20;99.90;;;;;;5012617;28;20238;-72
2024/04/03 07:47:26;;;;;;;5.55;3.38;;;8.30;99.90;;;;;;5015513;28;20209;-72
2024/04/03 07:49:51;;;;;;;10.48;6.35;;;8.30;99.90;;;;;;5013318;28;20319;-75
2024/04/03 07:52:18;;;;;;;7.13;3.50;;;8.40;99.90;;;;;;5008647;28;20562;-74
2024/04/03 07:54:44;;;;;;;4.35;3.30;;;8.40;99.90;;;;;;5012002;28;20684;-73
2024/04/03 07:57:10;;;;;;;5.13;3.90;;;8.40;99.90;;;;;;5012768;28;20199;-74
2024/04/03 07:59:36;;;;;;;5.53;3.90;;;8.50;99.90;;;;;;5012041;28;20200;-74
2024/04/03 08:02:07;;;;;;;6.10;4.47;;;8.50;99.90;;;;;;5014635;28;20286;-74
2024/04/03 08:04:35;;;;;;;5.15;4.38;;;8.50;99.90;;;;;;5010595;28;20221;-74
2024/04/03 08:07:02;;;;;;;4.22;3.40;;;8.60;99.90;;;;;;5011196;28;20195;-74
2024/04/03 08:09:30;;;;;;;5.63;3.60;;;8.60;99.90;;;;;;5015729;28;20222;-74
2024/04/03 08:11:57;;;;;;;5.00;4.50;;;8.60;99.90;;;;;;5013125;28;20510;-74
2024/04/03 08:14:23;;;;;;;4.60;3.75;;;8.60;99.90;;;;;;5007661;28;20223;-74
2024/04/03 08:16:49;;;;;;;6.57;4.57;;;8.60;99.90;;;;;;5013617;28;20211;-74
2024/04/03 08:19:17;;;;;;;7.35;4.32;;;8.60;99.90;;;;;;5012901;28;20210;-75
2024/04/03 08:21:46;;;;;;;6.28;4.70;;;8.60;99.90;;;;;;5012295;28;20227;-74
2024/04/03 08:24:12;;;;;;;8.00;4.47;;;8.60;99.90;;;;;;5010922;28;20219;-74
2024/04/03 08:26:38;;;;;;;6.70;4.30;;;8.60;99.90;;;;;;5014014;28;20203;-74
2024/04/03 08:29:04;;;;;;;8.13;4.65;;;8.60;99.90;;;;;;5013964;28;20485;-75
2024/04/03 08:31:31;;;;;;;4.33;3.93;;;8.60;99.90;;;;;;5012781;28;20226;-74
2024/04/03 08:33:58;;;;;;;6.03;3.65;;;8.60;99.90;;;;;;5012455;28;20484;-74
2024/04/03 08:36:26;;;;;;;9.80;5.78;;;8.60;99.90;;;;;;5015616;28;20207;-74
2024/04/03 08:38:52;;;;;;;6.63;4.40;;;8.70;99.90;;;;;;5011703;28;20211;-75
2024/04/03 08:41:19;;;;;;;6.85;4.95;;;8.60;99.90;;;;;;5012345;28;20223;-75
2024/04/03 08:43:47;;;;;;;11.50;4.85;;;8.60;99.90;;;;;;5012978;28;20199;-75
2024/04/03 08:46:14;;;;;;;4.78;4.18;;;8.70;99.90;;;;;;5009387;28;20203;-75
2024/04/03 08:48:40;;;;;;;6.32;3.72;;;8.70;99.90;;;;;;5007570;28;20215;-75
2024/04/03 08:51:07;;;;;;;10.05;4.40;;;8.80;99.90;;;;;;5018036;28;20225;-75
2024/04/03 08:53:35;;;;;;;7.97;4.85;;;8.90;99.90;;;;;;5017100;28;20625;-73
2024/04/03 08:56:01;;;;;;;7.30;5.80;;;9.00;99.90;;;;;;5016681;28;20302;-75
2024/04/03 08:58:27;;;;;;;7.00;4.72;;;9.00;99.90;;;;;;5015578;28;20206;-75
2024/04/03 09:00:54;;;;;;;8.73;5.27;;;9.10;99.90;;;;;;5013603;28;20291;-76
2024/04/03 09:03:21;;;;;;;5.82;4.32;;;9.20;99.90;;;;;;5005336;28;20466;-75
2024/04/03 09:05:52;;;;;;;6.82;5.97;;;9.10;99.90;;;;;;5010470;28;20223;-75
2024/04/03 09:08:17;;;;;;;7.97;4.85;;;9.10;99.90;;;;;;5011716;28;20242;-75
2024/04/03 09:10:48;;;;;;;8.63;5.80;;;9.10;99.90;;;;;;5006480;28;20277;-75
2024/04/03 09:13:14;;;;;;;7.78;5.15;;;9.10;99.90;;;;;;5015491;28;20291;-74
2024/04/03 09:15:41;;;;;;;7.13;4.23;;;9.10;99.90;;;;;;5010628;28;20725;-74
2024/04/03 09:18:08;;;;;;;8.43;5.93;;;9.10;99.90;;;;;;5008840;28;20488;-74
2024/04/03 09:20:35;;;;;;;10.38;4.60;;;9.00;99.90;;;;;;5006028;28;20230;-75
2024/04/03 09:23:01;;;;;;;5.80;4.82;;;9.00;99.90;;;;;;5011301;28;20215;-73
2024/04/03 09:25:29;;;;;;;6.95;4.82;;;8.90;99.90;;;;;;5015647;28;20570;-74
2024/04/03 09:28:05;;;;;;;6.63;4.68;;;8.90;99.90;;;;;;5015025;28;20213;-74
2024/04/03 09:30:33;;;;;;;4.93;3.75;;;9.00;99.90;;;;;;5011629;28;20291;-75
2024/04/03 09:33:00;;;;;;;4.18;3.08;;;8.90;99.90;;;;;;5012702;28;20909;-74
2024/04/03 09:35:28;;;;;;;7.82;3.90;;;8.90;99.90;;;;;;5015838;28;20210;-74
2024/04/03 09:37:55;;;;;;;7.40;5.72;;;8.90;99.90;;;;;;5013195;28;20217;-74
2024/04/03 09:40:24;;;;;;;5.32;4.13;;;8.90;99.90;;;;;;5013492;28;20219;-73
2024/04/03 09:42:57;;;;;;;12.00;6.63;;;9.00;99.90;;;;;;5014352;28;20607;-74
2024/04/03 09:45:25;;;;;;;5.50;4.15;;;9.00;99.90;;;;;;5014969;28;20406;-74
2024/04/03 09:47:59;;;;;;;5.30;4.35;;;9.10;99.90;;;;;;5006858;28;20642;-75
2024/04/03 09:50:33;;;;;;;11.98;5.38;;;9.20;99.90;;;;;;5015947;28;20280;-74
2024/04/03 09:53:00;;;;;;;7.07;4.93;;;9.30;99.90;;;;;;5013541;28;20210;-74
2024/04/03 09:55:28;;;;;;;6.47;4.57;;;9.30;99.90;;;;;;5013705;28;20669;-73
2024/04/03 09:58:00;;;;;;;8.13;4.78;;;9.20;99.90;;;;;;5011732;28;20203;-74
2024/04/03 10:00:27;;;;;;;8.23;4.47;;;9.30;99.90;;;;;;5011557;28;20207;-74
2024/04/03 10:02:54;;;;;;;8.02;4.35;;;9.40;99.90;;;;;;5011323;28;20287;-74
2024/04/03 10:05:21;;;;;;;7.70;3.85;;;9.50;99.90;;;;;;5014739;28;20207;-74
2024/04/03 10:08:02;;;;;;;11.93;5.15;;;9.50;99.90;;;;;;5010033;28;20691;-74
2024/04/03 10:10:29;;;;;;;10.85;5.50;;;9.60;99.90;;;;;;5015716;28;20233;-74
2024/04/03 10:12:59;;;;;;;4.70;3.55;;;9.60;99.90;;;;;;5015227;28;20636;-75
2024/04/03 10:15:25;;;;;;;5.70;3.63;;;9.70;99.90;;;;;;5009457;28;20223;-73
2024/04/03 10:17:53;;;;;;;6.53;3.30;;;9.70;99.90;;;;;;5004851;28;20286;-75
2024/04/03 10:20:30;;;;;;;9.18;5.40;;;9.80;99.90;;;;;;5013433;28;20214;-74
2024/04/03 10:22:56;;;;;;;5.15;4.57;;;9.80;99.90;;;;;;5006537;28;20218;-76
2024/04/03 10:25:22;;;;;;;7.47;3.60;;;9.80;99.90;;;;;;5009010;28;20223;-75
2024/04/03 10:27:49;;;;;;;6.67;4.10;;;9.90;99.90;;;;;;5007080;28;20200;-75
2024/04/03 10:30:18;;;;;;;5.40;4.88;;;10.00;99.90;;;;;;5010222;28;20223;-75
2024/04/03 10:32:45;;;;;;;5.30;4.80;;;10.10;99.90;;;;;;5008405;28;20206;-75
2024/04/03 10:35:12;;;;;;;6.28;5.47;;;10.10;99.90;;;;;;5008531;28;20203;-75
2024/04/03 10:37:39;;;;;;;4.88;4.10;;;10.20;99.90;;;;;;5007294;28;20243;-75
2024/04/03 10:40:06;;;;;;;4.40;3.90;;;10.20;99.90;;;;;;5006493;28;20203;-73
2024/04/03 10:42:34;;;;;;;7.75;4.95;;;10.10;99.90;;;;;;5004980;28;20323;-75
2024/04/03 10:45:01;;;;;;;8.82;4.68;;;10.10;99.90;;;;;;5005751;28;20203;-75
2024/04/03 10:47:29;;;;;;;6.05;4.10;;;10.00;99.90;;;;;;5009805;28;20199;-75
2024/04/03 10:49:54;;;;;;;7.28;4.20;;;10.00;99.90;;;;;;5000748;28;20657;-76
2024/04/03 10:52:23;;;;;;;9.77;5.20;;;10.10;99.90;;;;;;5006882;28;20323;-75
2024/04/03 10:54:48;;;;;;;9.95;5.10;;;10.10;99.90;;;;;;5008022;28;20480;-76
2024/04/03 10:57:16;;;;;;;7.73;4.53;;;10.10;99.90;;;;;;5009131;28;20682;-75
2024/04/03 10:59:43;;;;;;;5.05;4.55;;;10.10;99.90;;;;;;5007303;28;20207;-76
2024/04/03 11:02:10;;;;;;;7.70;5.18;;;10.20;99.90;;;;;;5007428;28;20242;-76
2024/04/03 11:04:37;;;;;;;5.82;4.45;;;10.30;99.90;;;;;;5005790;28;20211;-76
2024/04/03 11:07:04;;;;;;;9.32;4.50;;;10.30;99.90;;;;;;5006625;28;20273;-76
2024/04/03 11:09:32;;;;;;;6.47;4.57;;;10.20;99.90;;;;;;5006919;28;20223;-76
2024/04/03 11:12:02;;;;;;;4.78;3.88;;;10.20;99.90;;;;;;5010279;28;20233;-76
2024/04/03 11:14:29;;;;;;;7.85;4.80;;;10.20;99.90;;;;;;5012357;28;20213;-76
2024/04/03 11:16:57;;;;;;;11.40;5.32;;;10.30;99.90;;;;;;5007447;28;20269;-76
2024/04/03 11:19:23;;;;;;;8.48;4.95;;;10.30;99.90;;;;;;5010889;28;20957;-76
2024/04/03 11:21:49;;;;;;;5.30;3.60;;;10.20;99.90;;;;;;5011615;28;20277;-77
2024/04/03 11:24:16;;;;;;;6.32;4.65;;;10.30;99.90;;;;;;5012525;28;20218;-76
2024/04/03 11:26:46;;;;;;;8.52;4.15;;;10.20;99.90;;;;;;5010377;28;20218;-76
2024/04/03 11:29:26;;;;;;;6.38;4.70;;;10.20;99.90;;;;;;5010134;28;20227;-77
2024/04/03 11:31:53;;;;;;;6.85;4.25;;;10.20;99.90;;;;;;5008251;28;20229;-76
2024/04/03 11:34:19;;;;;;;8.82;6.05;;;10.20;99.90;;;;;;5011030;28;20220;-76
2024/04/03 11:36:46;;;;;;;6.07;5.37;;;10.30;99.90;;;;;;5009037;28;20560;-75
2024/04/03 11:39:16;;;;;;;6.35;5.20;;;10.30;99.90;;;;;;5003950;28;20265;-76
2024/04/03 11:41:45;;;;;;;10.45;5.95;;;10.30;99.90;;;;;;5013374;28;20223;-77
2024/04/03 11:44:12;;;;;;;6.65;4.55;;;10.40;99.90;;;;;;5000359;28;20304;-77
2024/04/03 11:46:38;;;;;;;7.65;4.93;;;10.50;99.90;;;;;;5003310;28;22377;-75
2024/04/03 11:49:04;;;;;;;9.35;5.72;;;10.50;99.90;;;;;;5003423;28;20231;-75
2024/04/03 11:51:31;;;;;;;6.73;4.70;;;10.60;99.90;;;;;;5001241;28;20612;-76
2024/04/03 11:53:57;;;;;;;7.60;5.75;;;10.60;99.90;;;;;;5010778;28;20219;-76
2024/04/03 11:56:24;;;;;;;12.23;6.10;;;10.60;99.90;;;;;;5007813;28;20218;-77
2024/04/03 11:58:51;;;;;;;16.35;6.80;;;10.70;99.90;;;;;;5012294;28;20211;-75
2024/04/03 12:01:18;;;;;;;8.30;6.28;;;10.80;99.90;;;;;;5014718;28;20253;-77
2024/04/03 12:03:44;;;;;;;7.13;4.75;;;10.80;99.90;;;;;;5007587;28;20214;-76
2024/04/03 12:06:11;;;;;;;9.63;5.57;;;10.90;99.90;;;;;;5006022;28;20290;-77
2024/04/03 12:08:37;;;;;;;9.30;5.43;;;10.80;99.90;;;;;;5010189;28;21061;-78
2024/04/03 12:11:06;;;;;;;9.70;6.97;;;10.80;99.90;;;;;;5014624;28;20326;-77
2024/04/03 12:13:32;;;;;;;7.32;5.65;;;10.80;99.90;;;;;;5013715;28;20464;-76
2024/04/03 12:16:00;;;;;;;10.60;6.33;;;10.90;99.90;;;;;;5020412;28;20211;-77
2024/04/03 12:18:36;;;;;;;7.95;5.57;;;10.90;99.90;;;;;;5021991;28;20649;-78
2024/04/03 12:21:03;;;;;;;10.00;5.70;;;10.90;99.90;;;;;;5019535;28;20252;-77
2024/04/03 12:23:30;;;;;;;12.23;6.35;;;10.90;99.90;;;;;;5027612;28;20464;-78
2024/04/03 12:25:56;;;;;;;10.38;6.28;;;10.90;99.90;;;;;;5014093;28;20261;-76
2024/04/03 12:28:23;;;;;;;5.40;4.85;;;10.90;99.90;;;;;;5020720;28;20203;-76
2024/04/03 12:30:50;;;;;;;6.13;5.00;;;10.80;99.90;;;;;;5008938;28;20231;-76
2024/04/03 12:33:18;;;;;;;6.25;4.18;;;10.90;99.90;;;;;;5011600;28;20249;-76
2024/04/03 12:35:44;;;;;;;6.18;4.65;;;11.00;99.90;;;;;;5011723;28;20620;-76
2024/04/03 12:38:12;;;;;;;5.65;4.57;;;11.00;99.90;;;;;;5009168;28;20230;-74
2024/04/03 12:40:39;;;;;;;10.50;6.78;;;11.00;99.90;;;;;;5010831;28;20223;-76
2024/04/03 12:43:05;;;;;;;9.23;5.80;;;11.10;99.90;;;;;;5009709;28;20229;-76
2024/04/03 12:45:32;;;;;;;10.15;5.90;;;11.20;99.90;;;;;;5013221;28;20509;-76
2024/04/03 12:47:58;;;;;;;7.15;3.15;;;11.20;99.90;;;;;;5008764;28;20211;-75
2024/04/03 12:50:27;;;;;;;6.03;4.90;;;11.20;99.90;;;;;;5007786;28;20231;-76
2024/04/03 12:52:53;;;;;;;7.33;5.20;;;11.10;99.90;;;;;;5010127;28;20215;-76
2024/04/03 12:55:20;;;;;;;7.50;6.07;;;11.10;99.90;;;;;;5011081;28;20944;-75
2024/04/03 12:57:46;;;;;;;8.98;4.78;;;11.10;99.90;;;;;;5010169;28;20207;-76
2024/04/03 13:00:14;;;;;;;5.53;4.55;;;11.00;99.90;;;;;;5008044;28;20211;-76
2024/04/03 13:02:40;;;;;;;7.13;4.80;;;11.00;99.90;;;;;;5004008;28;20223;-76
2024/04/03 13:05:07;;;;;;;12.10;6.60;;;10.90;99.90;;;;;;5002030;28;20208;-76
2024/04/03 13:07:34;;;;;;;6.05;4.65;;;10.90;99.90;;;;;;5006984;28;20462;-75
2024/04/03 13:10:01;;;;;;;10.30;4.07;;;10.90;99.90;;;;;;5010427;28;20288;-77
2024/04/03 13:12:27;;;;;;;8.70;4.47;;;10.90;99.90;;;;;;5005353;28;20249;-76
2024/04/03 13:14:54;;;;;;;8.40;4.63;;;10.90;99.90;;;;;;5004230;28;20678;-75
2024/04/03 13:17:19;;;;;;;6.77;5.17;;;11.00;99.90;;;;;;5013192;28;20207;-75
2024/04/03 13:19:46;;;;;;;5.50;4.33;;;11.10;99.90;;;;;;5012973;28;20461;-74
2024/04/03 13:22:15;;;;;;;13.38;4.65;;;11.20;99.90;;;;;;5004109;28;20715;-73
2024/04/03 13:24:43;;;;;;;6.38;4.35;;;11.20;99.90;;;;;;5005748;28;20670;-73
2024/04/03 13:27:09;;;;;;;4.15;3.75;;;11.20;99.90;;;;;;5008122;28;20547;-75
2024/04/03 13:29:36;;;;;;;11.10;5.47;;;11.20;99.90;;;;;;5005821;28;20234;-74
2024/04/03 13:32:02;;;;;;;7.13;4.13;;;11.10;99.90;;;;;;5005268;28;20674;-72
2024/04/03 13:34:29;;;;;;;5.57;4.68;;;11.10;99.90;;;;;;5009768;28;20521;-72
2024/04/03 13:36:55;;;;;;;8.27;5.93;;;11.20;99.90;;;;;;5007292;28;20545;-73
2024/04/03 13:39:23;;;;;;;7.07;3.80;;;11.30;99.90;;;;;;5017161;28;20199;-72
2024/04/03 13:41:50;;;;;;;5.47;4.10;;;11.20;99.90;;;;;;5013635;28;20231;-73
2024/04/03 13:44:17;;;;;;;7.27;4.83;;;11.20;99.90;;;;;;5013557;28;20552;-74
2024/04/03 13:46:43;;;;;;;4.28;3.95;;;11.20;99.90;;;;;;5009991;28;20470;-74
2024/04/03 13:49:15;;;;;;;6.87;5.00;;;11.20;99.90;;;;;;5012752;28;20199;-74
2024/04/03 13:51:42;;;;;;;7.97;4.75;;;11.20;99.90;;;;;;5006522;28;20245;-74
2024/04/03 13:54:09;;;;;;;12.23;5.00;;;11.30;99.90;;;;;;5010716;28;20342;-74
2024/04/03 13:56:35;;;;;;;7.83;5.30;;;11.30;99.90;;;;;;5013223;28;20480;-74
2024/04/03 13:59:03;;;;;;;6.90;5.37;;;11.30;99.90;;;;;;5012002;28;20466;-74
2024/04/03 14:01:29;;;;;;;7.93;5.43;;;11.30;99.90;;;;;;5016380;28;20482;-74
2024/04/03 14:03:56;;;;;;;8.00;6.20;;;11.30;99.90;;;;;;5014838;28;20481;-73
2024/04/03 14:06:22;;;;;;;7.30;6.13;;;11.30;99.90;;;;;;5011322;28;20470;-74
2024/04/03 14:08:52;;;;;;;8.70;5.53;;;11.30;99.90;;;;;;5008299;28;20504;-75
2024/04/03 14:11:19;;;;;;;8.25;4.88;;;11.30;99.90;;;;;;5013910;28;20237;-76
2024/04/03 14:13:47;;;;;;;4.93;4.43;;;11.30;99.90;;;;;;5018609;28;20202;-75
2024/04/03 14:16:15;;;;;;;8.00;6.10;;;11.40;99.90;;;;;;5017554;28;20466;-72
2024/04/03 14:18:41;;;;;;;4.90;4.50;;;11.50;99.90;;;;;;5016470;28;20497;-75
2024/04/03 14:21:07;;;;;;;7.30;5.70;;;11.50;99.90;;;;;;5012474;28;20477;-75
2024/04/03 14:23:34;;;;;;;8.53;5.47;;;11.50;99.90;;;;;;5021541;28;20285;-76
2024/04/03 14:26:00;;;;;;;6.63;6.00;;;11.50;99.90;;;;;;5010399;28;20478;-73
2024/04/03 14:28:27;;;;;;;6.27;4.43;;;11.40;99.90;;;;;;5018701;28;20473;-76
2024/04/03 14:30:54;;;;;;;6.80;5.43;;;11.50;99.90;;;;;;5018789;28;20344;-75
2024/04/03 14:33:23;;;;;;;5.70;5.20;;;11.40;99.90;;;;;;5021732;28;20465;-75
2024/04/03 14:35:49;;;;;;;6.60;4.70;;;11.50;99.90;;;;;;5024337;28;20472;-75
2024/04/03 14:38:15;;;;;;;3.80;3.50;;;11.50;99.90;;;;;;5025495;28;20466;-75
2024/04/03 14:40:41;;;;;;;8.97;5.83;;;11.50;99.90;;;;;;5023000;28;20491;-73
2024/04/03 14:43:08;;;;;;;4.57;4.27;;;11.50;99.90;;;;;;5021899;28;20924;-72
2024/04/03 14:45:35;;;;;;;5.47;4.97;;;11.50;99.90;;;;;;5025334;28;20310;-73
2024/04/03 14:48:02;;;;;;;5.47;4.83;;;11.50;99.90;;;;;;5022947;28;20494;-74
2024/04/03 14:50:29;;;;;;;4.77;4.10;;;11.50;99.90;;;;;;5019287;28;20493;-73
2024/04/03 14:52:56;;;;;;;6.87;4.60;;;11.50;99.90;;;;;;5017485;28;20480;-73
2024/04/03 14:55:23;;;;;;;8.47;4.70;;;11.60;99.90;;;;;;5017592;28;20506;-73
2024/04/03 14:57:51;;;;;;;11.67;6.03;;;11.70;99.90;;;;;;5011103;28;20476;-73
2024/04/03 15:00:18;;;;;;;4.90;4.50;;;11.70;99.90;;;;;;5022600;28;20485;-73
2024/04/03 15:02:45;;;;;;;15.93;5.00;;;11.70;99.90;;;;;;5024121;28;20938;-73
2024/04/03 15:05:11;;;;;;;6.33;4.50;;;11.70;99.90;;;;;;5017223;28;20466;-73
2024/04/03 15:07:39;;;;;;;4.43;3.83;;;11.80;99.90;;;;;;5020057;28;20523;-75
2024/04/03 15:10:07;;;;;;;6.10;5.53;;;11.80;99.90;;;;;;5012216;28;20489;-74
2024/04/03 15:12:34;;;;;;;8.37;5.80;;;11.80;99.90;;;;;;5013263;28;20546;-74
2024/04/03 15:14:59;;;;;;;4.00;3.70;;;11.80;99.90;;;;;;5013336;28;20959;-74
2024/04/03 15:17:28;;;;;;;4.37;4.07;;;11.80;99.90;;;;;;5018629;28;20462;-74
2024/04/03 15:19:54;;;;;;;4.97;4.30;;;11.80;99.90;;;;;;5021114;28;20260;-75
2024/04/03 15:22:21;;;;;;;5.30;4.70;;;11.80;99.90;;;;;;5023586;28;20485;-75
2024/04/03 15:24:49;;;;;;;6.00;4.60;;;11.80;99.90;;;;;;5017094;28;20466;-75
2024/04/03 15:27:17;;;;;;;4.40;3.90;;;11.80;99.90;;;;;;5022154;28;20548;-74
2024/04/03 15:29:43;;;;;;;2.97;2.77;;;11.80;99.90;;;;;;5024161;28;20795;-74
2024/04/03 15:32:11;;;;;;;3.77;3.40;;;11.70;99.90;;;;;;5021454;28;20569;-74
2024/04/03 15:34:37;;;;;;;6.23;4.90;;;11.70;99.90;;;;;;5015804;28;20473;-74
2024/04/03 15:37:05;;;;;;;4.13;3.83;;;11.70;99.90;;;;;;5017964;28;20474;-73
2024/04/03 15:39:31;;;;;;;6.07;4.67;;;11.70;99.90;;;;;;5014812;28;20464;-74
2024/04/03 15:42:00;;;;;;;6.70;4.07;;;11.70;99.90;;;;;;5015144;28;20572;-75
2024/04/03 15:44:27;;;;;;;6.47;4.30;;;11.70;99.90;;;;;;5020963;28;20561;-75
2024/04/03 15:46:53;;;;;;;4.50;4.10;;;11.70;99.90;;;;;;5020609;28;20477;-74
2024/04/03 15:49:19;;;;;;;4.40;3.87;;;11.70;99.90;;;;;;5014689;28;20462;-73
2024/04/03 15:51:46;;;;;;;6.17;4.20;;;11.60;99.90;;;;;;5021737;28;20496;-75
2024/04/03 15:54:13;;;;;;;5.93;3.63;;;11.60;99.90;;;;;;5013579;28;20839;-73
2024/04/03 15:56:40;;;;;;;6.77;3.97;;;11.70;99.90;;;;;;5018533;28;20554;-72
2024/04/03 15:59:07;;;;;;;6.87;4.67;;;11.70;99.90;;;;;;5021231;28;20811;-73
2024/04/03 16:01:35;;;;;;;6.07;5.17;;;11.80;99.90;;;;;;5016050;28;20493;-73
2024/04/03 16:04:01;;;;;;;5.00;3.20;;;11.80;99.90;;;;;;5021558;28;20464;-70
2024/04/03 16:06:29;;;;;;;3.80;3.50;;;11.80;99.90;;;;;;5009953;28;20458;-72
2024/04/03 16:08:55;;;;;;;4.33;3.93;;;11.80;99.90;;;;;;5020971;28;20886;-73
2024/04/03 16:11:22;;;;;;;3.43;3.23;;;11.80;99.90;;;;;;5023370;28;20514;-72
2024/04/03 16:13:48;;;;;;;4.13;3.30;;;11.80;99.90;;;;;;5019660;28;20468;-72
2024/04/03 16:16:16;;;;;;;3.70;3.40;;;11.80;99.90;;;;;;5014163;28;20960;-72
2024/04/03 16:18:42;;;;;;;2.70;2.60;;;11.80;99.90;;;;;;5024784;28;20289;-72
2024/04/03 16:21:11;;;;;;;3.10;2.90;;;11.80;99.90;;;;;;5019158;28;20565;-73
2024/04/03 16:23:36;;;;;;;2.53;2.40;;;11.80;99.90;;;;;;5015742;28;20968;-72
2024/04/03 16:26:03;;;;;;;2.87;1.90;;;11.70;99.90;;;;;;5013931;28;20579;-72
2024/04/03 16:28:29;;;;;;;2.50;2.37;;;11.70;99.90;;;;;;5021138;28;20468;-73
2024/04/03 16:30:56;;;;;;;6.03;2.60;;;11.60;99.90;;;;;;5022344;28;20485;-72
2024/04/03 16:33:24;;;;;;;3.03;2.83;;;11.60;99.90;;;;;;5016568;28;20258;-74
2024/04/03 16:35:52;;;;;;;2.43;2.33;;;11.60;99.90;;;;;;5021507;28;20469;-74
2024/04/03 16:38:18;;;;;;;2.13;2.03;;;11.50;99.90;;;;;;5022118;28;20965;-74
2024/04/03 16:40:44;;;;;;;1.50;1.50;;;11.40;99.90;;;;;;5018655;28;20554;-73
2024/04/03 16:43:11;;;;;;;3.42;1.77;;;11.40;99.90;;;;;;5019360;28;20471;-75
2024/04/03 16:45:38;;;;;;;1.37;1.37;;;11.30;99.90;;;;;;5020429;28;20225;-74
2024/04/03 16:48:04;;;;;;;1.53;1.43;;;11.20;99.90;;;;;;5015193;28;20478;-75
2024/04/03 16:50:32;;;;;;;2.00;1.90;;;11.10;99.90;;;;;;5023282;28;20543;-74